sensor_id;sensor_type;location;lat;lon;timestamp;P1;durP1;ratioP1;P2;durP2;ratioP2
9888;SDS011;4983;42.112;24.738;2022-10-20T00:02:14;9.63;;;7.43;;
9888;SDS011;4983;42.112;24.738;2022-10-20T00:04:41;10.10;;;7.70;;
9888;SDS011;4983;42.112;24.738;2022-10-20T00:07:08;14.07;;;8.50;;
9888;SDS011;4983;42.112;24.738;2022-10-20T00:09:35;10.27;;;7.87;;
9888;SDS011;4983;42.112;24.738;2022-10-20T00:12:02;9.20;;;7.67;;
9888;SDS011;4983;42.112;24.738;2022-10-20T00:14:29;9.83;;;8.33;;
9888;SDS011;4983;42.112;24.738;2022-10-20T00:16:55;10.63;;;7.70;;
9888;SDS011;4983;42.112;24.738;2022-10-20T00:19:24;11.53;;;8.13;;
9888;SDS011;4983;42.112;24.738;2022-10-20T00:21:50;10.47;;;8.03;;
9888;SDS011;4983;42.112;24.738;2022-10-20T00:24:17;8.73;;;7.93;;
9888;SDS011;4983;42.112;24.738;2022-10-20T00:26:46;10.10;;;7.73;;
9888;SDS011;4983;42.112;24.738;2022-10-20T00:29:13;10.33;;;7.73;;
9888;SDS011;4983;42.112;24.738;2022-10-20T00:31:39;9.07;;;8.17;;
9888;SDS011;4983;42.112;24.738;2022-10-20T00:34:06;11.43;;;8.83;;
9888;SDS011;4983;42.112;24.738;2022-10-20T00:36:32;9.90;;;8.13;;
9888;SDS011;4983;42.112;24.738;2022-10-20T00:38:59;12.10;;;8.73;;
9888;SDS011;4983;42.112;24.738;2022-10-20T00:41:27;14.67;;;9.10;;
9888;SDS011;4983;42.112;24.738;2022-10-20T00:43:56;15.40;;;9.30;;
9888;SDS011;4983;42.112;24.738;2022-10-20T00:46:24;14.37;;;9.60;;
9888;SDS011;4983;42.112;24.738;2022-10-20T00:48:53;14.10;;;9.50;;
9888;SDS011;4983;42.112;24.738;2022-10-20T00:51:22;15.50;;;9.50;;
9888;SDS011;4983;42.112;24.738;2022-10-20T00:53:50;11.60;;;9.43;;
9888;SDS011;4983;42.112;24.738;2022-10-20T00:56:18;14.50;;;9.20;;
9888;SDS011;4983;42.112;24.738;2022-10-20T00:58:45;14.10;;;10.87;;
9888;SDS011;4983;42.112;24.738;2022-10-20T01:01:13;11.23;;;9.70;;
9888;SDS011;4983;42.112;24.738;2022-10-20T01:03:41;11.67;;;9.63;;
9888;SDS011;4983;42.112;24.738;2022-10-20T01:06:10;10.37;;;9.40;;
9888;SDS011;4983;42.112;24.738;2022-10-20T01:08:37;10.40;;;9.37;;
9888;SDS011;4983;42.112;24.738;2022-10-20T01:11:05;11.43;;;9.73;;
9888;SDS011;4983;42.112;24.738;2022-10-20T01:13:38;10.60;;;8.87;;
9888;SDS011;4983;42.112;24.738;2022-10-20T01:16:11;15.07;;;10.17;;
9888;SDS011;4983;42.112;24.738;2022-10-20T01:18:43;11.30;;;10.20;;
9888;SDS011;4983;42.112;24.738;2022-10-20T01:21:23;10.93;;;9.73;;
9888;SDS011;4983;42.112;24.738;2022-10-20T01:24:05;10.93;;;9.90;;
9888;SDS011;4983;42.112;24.738;2022-10-20T01:29:25;13.53;;;10.80;;
9888;SDS011;4983;42.112;24.738;2022-10-20T01:31:55;16.13;;;10.57;;
9888;SDS011;4983;42.112;24.738;2022-10-20T01:34:25;11.97;;;10.30;;
9888;SDS011;4983;42.112;24.738;2022-10-20T01:36:53;13.20;;;10.80;;
9888;SDS011;4983;42.112;24.738;2022-10-20T01:39:22;13.47;;;10.60;;
9888;SDS011;4983;42.112;24.738;2022-10-20T01:41:50;11.93;;;10.63;;
9888;SDS011;4983;42.112;24.738;2022-10-20T01:44:18;12.30;;;10.47;;
9888;SDS011;4983;42.112;24.738;2022-10-20T01:46:47;15.43;;;11.13;;
9888;SDS011;4983;42.112;24.738;2022-10-20T01:49:14;12.90;;;11.57;;
9888;SDS011;4983;42.112;24.738;2022-10-20T01:51:41;13.63;;;11.43;;
9888;SDS011;4983;42.112;24.738;2022-10-20T01:54:18;13.50;;;12.23;;
9888;SDS011;4983;42.112;24.738;2022-10-20T01:56:45;13.93;;;12.37;;
9888;SDS011;4983;42.112;24.738;2022-10-20T01:59:20;19.80;;;13.00;;
9888;SDS011;4983;42.112;24.738;2022-10-20T02:01:56;14.20;;;12.47;;
9888;SDS011;4983;42.112;24.738;2022-10-20T02:04:27;16.40;;;11.57;;
9888;SDS011;4983;42.112;24.738;2022-10-20T02:06:55;13.97;;;12.53;;
9888;SDS011;4983;42.112;24.738;2022-10-20T02:09:24;13.33;;;12.03;;
9888;SDS011;4983;42.112;24.738;2022-10-20T02:11:55;14.73;;;12.87;;
9888;SDS011;4983;42.112;24.738;2022-10-20T02:14:24;14.53;;;12.93;;
9888;SDS011;4983;42.112;24.738;2022-10-20T02:16:52;15.17;;;13.53;;
9888;SDS011;4983;42.112;24.738;2022-10-20T02:19:23;15.00;;;13.40;;
9888;SDS011;4983;42.112;24.738;2022-10-20T02:21:51;14.10;;;12.60;;
9888;SDS011;4983;42.112;24.738;2022-10-20T02:24:20;14.73;;;13.33;;
9888;SDS011;4983;42.112;24.738;2022-10-20T02:26:48;15.23;;;13.30;;
9888;SDS011;4983;42.112;24.738;2022-10-20T02:29:19;15.17;;;13.67;;
9888;SDS011;4983;42.112;24.738;2022-10-20T02:31:47;14.87;;;13.43;;
9888;SDS011;4983;42.112;24.738;2022-10-20T02:34:14;14.63;;;13.23;;
9888;SDS011;4983;42.112;24.738;2022-10-20T02:36:42;15.13;;;13.73;;
9888;SDS011;4983;42.112;24.738;2022-10-20T02:39:09;17.73;;;14.37;;
9888;SDS011;4983;42.112;24.738;2022-10-20T02:41:36;15.73;;;14.20;;
9888;SDS011;4983;42.112;24.738;2022-10-20T02:44:02;16.03;;;14.43;;
9888;SDS011;4983;42.112;24.738;2022-10-20T02:46:29;16.13;;;14.43;;
9888;SDS011;4983;42.112;24.738;2022-10-20T02:48:56;17.63;;;14.37;;
9888;SDS011;4983;42.112;24.738;2022-10-20T02:51:22;15.57;;;14.10;;
9888;SDS011;4983;42.112;24.738;2022-10-20T02:53:50;16.57;;;14.47;;
9888;SDS011;4983;42.112;24.738;2022-10-20T02:56:19;15.63;;;14.03;;
9888;SDS011;4983;42.112;24.738;2022-10-20T02:58:46;15.33;;;13.83;;
9888;SDS011;4983;42.112;24.738;2022-10-20T03:01:13;15.70;;;14.20;;
9888;SDS011;4983;42.112;24.738;2022-10-20T03:03:39;19.10;;;14.70;;
9888;SDS011;4983;42.112;24.738;2022-10-20T03:06:06;17.90;;;14.77;;
9888;SDS011;4983;42.112;24.738;2022-10-20T03:08:33;16.33;;;14.70;;
9888;SDS011;4983;42.112;24.738;2022-10-20T03:11:01;15.90;;;14.33;;
9888;SDS011;4983;42.112;24.738;2022-10-20T03:13:28;22.67;;;14.50;;
9888;SDS011;4983;42.112;24.738;2022-10-20T03:15:54;20.50;;;15.47;;
9888;SDS011;4983;42.112;24.738;2022-10-20T03:18:21;16.60;;;14.90;;
9888;SDS011;4983;42.112;24.738;2022-10-20T03:20:49;15.73;;;14.10;;
9888;SDS011;4983;42.112;24.738;2022-10-20T03:23:15;17.20;;;15.17;;
9888;SDS011;4983;42.112;24.738;2022-10-20T03:25:42;18.37;;;15.47;;
9888;SDS011;4983;42.112;24.738;2022-10-20T03:28:12;18.67;;;15.20;;
9888;SDS011;4983;42.112;24.738;2022-10-20T03:30:38;19.97;;;15.10;;
9888;SDS011;4983;42.112;24.738;2022-10-20T03:33:05;16.00;;;14.40;;
9888;SDS011;4983;42.112;24.738;2022-10-20T03:35:32;16.60;;;14.90;;
9888;SDS011;4983;42.112;24.738;2022-10-20T03:37:58;16.27;;;14.67;;
9888;SDS011;4983;42.112;24.738;2022-10-20T03:40:25;19.50;;;15.40;;
9888;SDS011;4983;42.112;24.738;2022-10-20T03:42:51;17.13;;;15.10;;
9888;SDS011;4983;42.112;24.738;2022-10-20T03:45:19;43.43;;;16.13;;
9888;SDS011;4983;42.112;24.738;2022-10-20T03:47:46;16.33;;;14.67;;
9888;SDS011;4983;42.112;24.738;2022-10-20T03:50:12;16.37;;;14.67;;
9888;SDS011;4983;42.112;24.738;2022-10-20T03:52:39;15.87;;;14.37;;
9888;SDS011;4983;42.112;24.738;2022-10-20T03:55:06;16.27;;;14.47;;
9888;SDS011;4983;42.112;24.738;2022-10-20T03:57:33;21.00;;;15.97;;
9888;SDS011;4983;42.112;24.738;2022-10-20T04:00:00;15.70;;;14.20;;
9888;SDS011;4983;42.112;24.738;2022-10-20T04:02:31;23.67;;;14.70;;
9888;SDS011;4983;42.112;24.738;2022-10-20T04:04:58;15.90;;;13.67;;
9888;SDS011;4983;42.112;24.738;2022-10-20T04:07:25;24.27;;;13.73;;
9888;SDS011;4983;42.112;24.738;2022-10-20T04:09:51;17.70;;;13.90;;
9888;SDS011;4983;42.112;24.738;2022-10-20T04:12:18;16.27;;;13.47;;
9888;SDS011;4983;42.112;24.738;2022-10-20T04:14:44;18.90;;;14.13;;
9888;SDS011;4983;42.112;24.738;2022-10-20T04:17:11;22.70;;;13.33;;
9888;SDS011;4983;42.112;24.738;2022-10-20T04:19:39;20.77;;;13.50;;
9888;SDS011;4983;42.112;24.738;2022-10-20T04:22:06;15.67;;;12.90;;
9888;SDS011;4983;42.112;24.738;2022-10-20T04:24:32;19.27;;;13.03;;
9888;SDS011;4983;42.112;24.738;2022-10-20T04:26:59;17.50;;;12.83;;
9888;SDS011;4983;42.112;24.738;2022-10-20T04:29:25;19.30;;;13.13;;
9888;SDS011;4983;42.112;24.738;2022-10-20T04:31:52;18.10;;;13.10;;
9888;SDS011;4983;42.112;24.738;2022-10-20T04:34:18;34.60;;;15.23;;
9888;SDS011;4983;42.112;24.738;2022-10-20T04:36:46;19.13;;;13.00;;
9888;SDS011;4983;42.112;24.738;2022-10-20T04:39:13;13.83;;;11.63;;
9888;SDS011;4983;42.112;24.738;2022-10-20T04:41:40;27.90;;;14.20;;
9888;SDS011;4983;42.112;24.738;2022-10-20T04:44:06;15.33;;;12.00;;
9888;SDS011;4983;42.112;24.738;2022-10-20T04:46:33;12.70;;;11.50;;
9888;SDS011;4983;42.112;24.738;2022-10-20T04:49:02;16.37;;;11.77;;
9888;SDS011;4983;42.112;24.738;2022-10-20T04:51:29;18.33;;;11.47;;
9888;SDS011;4983;42.112;24.738;2022-10-20T04:53:57;21.70;;;11.67;;
9888;SDS011;4983;42.112;24.738;2022-10-20T04:56:24;16.23;;;11.90;;
9888;SDS011;4983;42.112;24.738;2022-10-20T04:58:51;14.23;;;11.70;;
9888;SDS011;4983;42.112;24.738;2022-10-20T05:01:18;14.87;;;11.03;;
9888;SDS011;4983;42.112;24.738;2022-10-20T05:03:45;12.33;;;11.10;;
9888;SDS011;4983;42.112;24.738;2022-10-20T05:06:13;22.67;;;12.90;;
9888;SDS011;4983;42.112;24.738;2022-10-20T05:08:40;15.17;;;11.70;;
9888;SDS011;4983;42.112;24.738;2022-10-20T05:11:08;14.07;;;10.83;;
9888;SDS011;4983;42.112;24.738;2022-10-20T05:13:35;13.93;;;12.53;;
9888;SDS011;4983;42.112;24.738;2022-10-20T05:16:02;18.33;;;16.33;;
9888;SDS011;4983;42.112;24.738;2022-10-20T05:18:29;15.23;;;11.87;;
9888;SDS011;4983;42.112;24.738;2022-10-20T05:20:56;17.20;;;13.27;;
9888;SDS011;4983;42.112;24.738;2022-10-20T05:23:23;16.00;;;12.17;;
9888;SDS011;4983;42.112;24.738;2022-10-20T05:25:49;34.80;;;13.33;;
9888;SDS011;4983;42.112;24.738;2022-10-20T05:28:17;21.17;;;11.57;;
9888;SDS011;4983;42.112;24.738;2022-10-20T05:30:44;14.27;;;11.50;;
9888;SDS011;4983;42.112;24.738;2022-10-20T05:33:10;15.87;;;11.80;;
9888;SDS011;4983;42.112;24.738;2022-10-20T05:35:37;18.50;;;11.53;;
9888;SDS011;4983;42.112;24.738;2022-10-20T05:38:03;12.03;;;10.93;;
9888;SDS011;4983;42.112;24.738;2022-10-20T05:40:30;14.87;;;11.30;;
9888;SDS011;4983;42.112;24.738;2022-10-20T05:42:56;15.63;;;11.33;;
9888;SDS011;4983;42.112;24.738;2022-10-20T05:45:24;24.30;;;12.50;;
9888;SDS011;4983;42.112;24.738;2022-10-20T05:47:51;14.37;;;10.60;;
9888;SDS011;4983;42.112;24.738;2022-10-20T05:50:18;24.57;;;11.73;;
9888;SDS011;4983;42.112;24.738;2022-10-20T05:52:44;16.40;;;10.60;;
9888;SDS011;4983;42.112;24.738;2022-10-20T05:55:11;12.17;;;10.97;;
9888;SDS011;4983;42.112;24.738;2022-10-20T05:57:37;11.50;;;10.33;;
9888;SDS011;4983;42.112;24.738;2022-10-20T06:00:04;15.33;;;10.67;;
9888;SDS011;4983;42.112;24.738;2022-10-20T06:02:33;59.43;;;14.00;;
9888;SDS011;4983;42.112;24.738;2022-10-20T06:05:02;19.03;;;11.17;;
9888;SDS011;4983;42.112;24.738;2022-10-20T06:07:29;15.63;;;10.53;;
9888;SDS011;4983;42.112;24.738;2022-10-20T06:09:56;18.33;;;10.10;;
9888;SDS011;4983;42.112;24.738;2022-10-20T06:12:22;12.67;;;10.47;;
9888;SDS011;4983;42.112;24.738;2022-10-20T06:14:50;12.93;;;9.80;;
9888;SDS011;4983;42.112;24.738;2022-10-20T06:17:16;21.33;;;10.47;;
9888;SDS011;4983;42.112;24.738;2022-10-20T06:19:44;17.03;;;10.30;;
9888;SDS011;4983;42.112;24.738;2022-10-20T06:22:11;14.20;;;10.27;;
9888;SDS011;4983;42.112;24.738;2022-10-20T06:24:37;21.50;;;10.77;;
9888;SDS011;4983;42.112;24.738;2022-10-20T06:27:04;12.07;;;9.97;;
9888;SDS011;4983;42.112;24.738;2022-10-20T06:29:31;16.53;;;10.17;;
9888;SDS011;4983;42.112;24.738;2022-10-20T06:31:57;11.33;;;9.53;;
9888;SDS011;4983;42.112;24.738;2022-10-20T06:34:24;11.07;;;9.97;;
9888;SDS011;4983;42.112;24.738;2022-10-20T06:36:52;19.53;;;10.50;;
9888;SDS011;4983;42.112;24.738;2022-10-20T06:39:19;15.83;;;9.80;;
9888;SDS011;4983;42.112;24.738;2022-10-20T06:41:46;13.53;;;9.53;;
9888;SDS011;4983;42.112;24.738;2022-10-20T06:44:15;14.80;;;9.47;;
9888;SDS011;4983;42.112;24.738;2022-10-20T06:46:41;17.97;;;9.50;;
9888;SDS011;4983;42.112;24.738;2022-10-20T06:49:08;12.03;;;9.60;;
9888;SDS011;4983;42.112;24.738;2022-10-20T06:51:35;9.97;;;8.60;;
9888;SDS011;4983;42.112;24.738;2022-10-20T06:54:04;10.50;;;9.00;;
9888;SDS011;4983;42.112;24.738;2022-10-20T06:56:31;15.37;;;9.27;;
9888;SDS011;4983;42.112;24.738;2022-10-20T06:58:58;17.40;;;9.30;;
9888;SDS011;4983;42.112;24.738;2022-10-20T07:01:26;9.30;;;8.23;;
9888;SDS011;4983;42.112;24.738;2022-10-20T07:03:54;16.03;;;8.90;;
9888;SDS011;4983;42.112;24.738;2022-10-20T07:06:21;22.50;;;8.90;;
9888;SDS011;4983;42.112;24.738;2022-10-20T07:08:48;15.80;;;8.37;;
9888;SDS011;4983;42.112;24.738;2022-10-20T07:11:19;11.13;;;7.77;;
9888;SDS011;4983;42.112;24.738;2022-10-20T07:13:46;21.47;;;9.20;;
9888;SDS011;4983;42.112;24.738;2022-10-20T07:16:14;19.83;;;8.93;;
9888;SDS011;4983;42.112;24.738;2022-10-20T07:18:41;9.50;;;7.60;;
9888;SDS011;4983;42.112;24.738;2022-10-20T07:21:10;11.90;;;8.03;;
9888;SDS011;4983;42.112;24.738;2022-10-20T07:23:37;9.43;;;7.77;;
9888;SDS011;4983;42.112;24.738;2022-10-20T07:26:04;9.17;;;7.93;;
9888;SDS011;4983;42.112;24.738;2022-10-20T07:28:33;17.40;;;8.87;;
9888;SDS011;4983;42.112;24.738;2022-10-20T07:31:01;13.30;;;7.83;;
9888;SDS011;4983;42.112;24.738;2022-10-20T07:33:28;9.87;;;7.63;;
9888;SDS011;4983;42.112;24.738;2022-10-20T07:35:55;12.17;;;8.43;;
9888;SDS011;4983;42.112;24.738;2022-10-20T07:38:21;12.47;;;7.70;;
9888;SDS011;4983;42.112;24.738;2022-10-20T07:40:48;10.00;;;7.40;;
9888;SDS011;4983;42.112;24.738;2022-10-20T07:43:14;15.50;;;7.77;;
9888;SDS011;4983;42.112;24.738;2022-10-20T07:45:42;11.17;;;7.60;;
9888;SDS011;4983;42.112;24.738;2022-10-20T07:48:09;9.67;;;7.40;;
9888;SDS011;4983;42.112;24.738;2022-10-20T07:50:36;11.65;;;7.47;;
9888;SDS011;4983;42.112;24.738;2022-10-20T07:53:04;23.57;;;8.27;;
9888;SDS011;4983;42.112;24.738;2022-10-20T07:55:31;10.73;;;7.53;;
9888;SDS011;4983;42.112;24.738;2022-10-20T07:57:59;10.40;;;7.03;;
9888;SDS011;4983;42.112;24.738;2022-10-20T08:00:25;14.47;;;7.47;;
9888;SDS011;4983;42.112;24.738;2022-10-20T08:02:53;12.17;;;7.00;;
9888;SDS011;4983;42.112;24.738;2022-10-20T08:05:20;12.27;;;7.20;;
9888;SDS011;4983;42.112;24.738;2022-10-20T08:07:46;11.47;;;6.93;;
9888;SDS011;4983;42.112;24.738;2022-10-20T08:10:13;9.47;;;6.90;;
9888;SDS011;4983;42.112;24.738;2022-10-20T08:12:40;11.97;;;7.97;;
9888;SDS011;4983;42.112;24.738;2022-10-20T08:15:07;11.50;;;7.03;;
9888;SDS011;4983;42.112;24.738;2022-10-20T08:17:33;12.87;;;10.80;;
9888;SDS011;4983;42.112;24.738;2022-10-20T08:20:01;21.60;;;19.00;;
9888;SDS011;4983;42.112;24.738;2022-10-20T08:22:28;24.77;;;8.53;;
9888;SDS011;4983;42.112;24.738;2022-10-20T08:24:55;11.33;;;7.07;;
9888;SDS011;4983;42.112;24.738;2022-10-20T08:27:21;8.50;;;6.70;;
9888;SDS011;4983;42.112;24.738;2022-10-20T08:29:48;16.10;;;6.77;;
9888;SDS011;4983;42.112;24.738;2022-10-20T08:32:14;13.13;;;6.53;;
9888;SDS011;4983;42.112;24.738;2022-10-20T08:34:41;9.40;;;6.27;;
9888;SDS011;4983;42.112;24.738;2022-10-20T08:37:09;13.67;;;6.53;;
9888;SDS011;4983;42.112;24.738;2022-10-20T08:39:35;9.33;;;6.00;;
9888;SDS011;4983;42.112;24.738;2022-10-20T08:42:02;11.77;;;6.30;;
9888;SDS011;4983;42.112;24.738;2022-10-20T08:44:30;31.13;;;8.60;;
9888;SDS011;4983;42.112;24.738;2022-10-20T08:46:58;10.20;;;6.77;;
9888;SDS011;4983;42.112;24.738;2022-10-20T08:49:26;18.00;;;6.23;;
9888;SDS011;4983;42.112;24.738;2022-10-20T08:51:54;16.53;;;6.23;;
9888;SDS011;4983;42.112;24.738;2022-10-20T08:54:22;8.43;;;5.87;;
9888;SDS011;4983;42.112;24.738;2022-10-20T08:56:48;15.30;;;6.57;;
9888;SDS011;4983;42.112;24.738;2022-10-20T08:59:22;14.00;;;6.13;;
9888;SDS011;4983;42.112;24.738;2022-10-20T09:01:49;6.17;;;5.50;;
9888;SDS011;4983;42.112;24.738;2022-10-20T09:04:19;10.43;;;5.57;;
9888;SDS011;4983;42.112;24.738;2022-10-20T09:06:46;18.33;;;5.80;;
9888;SDS011;4983;42.112;24.738;2022-10-20T09:09:16;12.47;;;6.13;;
9888;SDS011;4983;42.112;24.738;2022-10-20T09:11:44;9.07;;;5.77;;
9888;SDS011;4983;42.112;24.738;2022-10-20T09:14:11;8.27;;;5.97;;
9888;SDS011;4983;42.112;24.738;2022-10-20T09:16:40;7.80;;;5.67;;
9888;SDS011;4983;42.112;24.738;2022-10-20T09:19:19;10.77;;;5.57;;
9888;SDS011;4983;42.112;24.738;2022-10-20T09:21:47;11.63;;;5.60;;
9888;SDS011;4983;42.112;24.738;2022-10-20T09:24:16;5.77;;;4.93;;
9888;SDS011;4983;42.112;24.738;2022-10-20T09:26:45;6.80;;;4.93;;
9888;SDS011;4983;42.112;24.738;2022-10-20T09:29:13;8.27;;;5.57;;
9888;SDS011;4983;42.112;24.738;2022-10-20T09:31:42;13.30;;;5.70;;
9888;SDS011;4983;42.112;24.738;2022-10-20T09:34:18;8.67;;;6.10;;
9888;SDS011;4983;42.112;24.738;2022-10-20T09:36:45;9.33;;;6.00;;
9888;SDS011;4983;42.112;24.738;2022-10-20T09:39:16;7.57;;;5.27;;
9888;SDS011;4983;42.112;24.738;2022-10-20T09:41:44;18.40;;;6.10;;
9888;SDS011;4983;42.112;24.738;2022-10-20T09:44:13;8.20;;;5.10;;
9888;SDS011;4983;42.112;24.738;2022-10-20T09:46:42;14.67;;;6.73;;
9888;SDS011;4983;42.112;24.738;2022-10-20T09:49:19;12.93;;;5.40;;
9888;SDS011;4983;42.112;24.738;2022-10-20T09:51:47;6.70;;;4.80;;
9888;SDS011;4983;42.112;24.738;2022-10-20T09:54:15;8.23;;;4.97;;
9888;SDS011;4983;42.112;24.738;2022-10-20T09:56:45;6.87;;;5.30;;
9888;SDS011;4983;42.112;24.738;2022-10-20T09:59:17;10.67;;;5.53;;
9888;SDS011;4983;42.112;24.738;2022-10-20T10:01:52;11.93;;;5.20;;
9888;SDS011;4983;42.112;24.738;2022-10-20T10:04:28;7.10;;;4.67;;
9888;SDS011;4983;42.112;24.738;2022-10-20T10:06:55;10.80;;;4.93;;
9888;SDS011;4983;42.112;24.738;2022-10-20T10:09:24;9.27;;;4.77;;
9888;SDS011;4983;42.112;24.738;2022-10-20T10:11:56;8.03;;;4.90;;
9888;SDS011;4983;42.112;24.738;2022-10-20T10:14:23;15.20;;;5.50;;
9888;SDS011;4983;42.112;24.738;2022-10-20T10:16:50;7.13;;;4.27;;
9888;SDS011;4983;42.112;24.738;2022-10-20T10:19:17;16.07;;;5.53;;
9888;SDS011;4983;42.112;24.738;2022-10-20T10:21:45;6.67;;;4.50;;
9888;SDS011;4983;42.112;24.738;2022-10-20T10:24:26;6.93;;;4.77;;
9888;SDS011;4983;42.112;24.738;2022-10-20T10:26:55;11.60;;;4.47;;
9888;SDS011;4983;42.112;24.738;2022-10-20T10:29:24;6.33;;;4.50;;
9888;SDS011;4983;42.112;24.738;2022-10-20T10:31:55;8.03;;;4.07;;
9888;SDS011;4983;42.112;24.738;2022-10-20T10:34:24;7.33;;;4.33;;
9888;SDS011;4983;42.112;24.738;2022-10-20T10:36:53;5.53;;;4.40;;
9888;SDS011;4983;42.112;24.738;2022-10-20T10:39:20;7.90;;;4.27;;
9888;SDS011;4983;42.112;24.738;2022-10-20T10:41:52;5.23;;;4.70;;
9888;SDS011;4983;42.112;24.738;2022-10-20T10:44:27;7.30;;;4.70;;
9888;SDS011;4983;42.112;24.738;2022-10-20T10:46:59;15.73;;;6.50;;
9888;SDS011;4983;42.112;24.738;2022-10-20T10:49:31;5.33;;;4.00;;
9888;SDS011;4983;42.112;24.738;2022-10-20T10:52:03;9.60;;;4.90;;
9888;SDS011;4983;42.112;24.738;2022-10-20T10:54:37;10.10;;;4.87;;
9888;SDS011;4983;42.112;24.738;2022-10-20T10:57:09;8.00;;;4.40;;
9888;SDS011;4983;42.112;24.738;2022-10-20T10:59:40;6.07;;;4.53;;
9888;SDS011;4983;42.112;24.738;2022-10-20T11:02:20;7.43;;;4.23;;
9888;SDS011;4983;42.112;24.738;2022-10-20T11:07:47;6.10;;;4.23;;
9888;SDS011;4983;42.112;24.738;2022-10-20T11:10:20;4.53;;;3.87;;
9888;SDS011;4983;42.112;24.738;2022-10-20T11:12:50;5.97;;;3.97;;
9888;SDS011;4983;42.112;24.738;2022-10-20T11:15:26;6.37;;;4.13;;
9888;SDS011;4983;42.112;24.738;2022-10-20T11:17:54;6.40;;;3.90;;
9888;SDS011;4983;42.112;24.738;2022-10-20T11:20:31;8.60;;;4.10;;
9888;SDS011;4983;42.112;24.738;2022-10-20T11:25:53;4.30;;;3.90;;
9888;SDS011;4983;42.112;24.738;2022-10-20T11:28:24;10.00;;;4.67;;
9888;SDS011;4983;42.112;24.738;2022-10-20T11:30:53;4.40;;;3.60;;
9888;SDS011;4983;42.112;24.738;2022-10-20T11:33:21;12.33;;;4.90;;
9888;SDS011;4983;42.112;24.738;2022-10-20T11:35:52;13.00;;;6.00;;
9888;SDS011;4983;42.112;24.738;2022-10-20T11:38:20;12.40;;;5.07;;
9888;SDS011;4983;42.112;24.738;2022-10-20T11:40:51;5.17;;;3.73;;
9888;SDS011;4983;42.112;24.738;2022-10-20T11:43:19;5.07;;;4.00;;
9888;SDS011;4983;42.112;24.738;2022-10-20T11:45:49;4.27;;;3.87;;
9888;SDS011;4983;42.112;24.738;2022-10-20T11:48:22;5.07;;;3.50;;
9888;SDS011;4983;42.112;24.738;2022-10-20T11:50:55;6.57;;;4.07;;
9888;SDS011;4983;42.112;24.738;2022-10-20T11:53:33;7.77;;;4.83;;
9888;SDS011;4983;42.112;24.738;2022-10-20T11:58:55;4.67;;;3.57;;
9888;SDS011;4983;42.112;24.738;2022-10-20T12:01:30;8.50;;;3.77;;
9888;SDS011;4983;42.112;24.738;2022-10-20T12:04:06;7.10;;;3.83;;
9888;SDS011;4983;42.112;24.738;2022-10-20T12:06:43;6.63;;;5.93;;
9888;SDS011;4983;42.112;24.738;2022-10-20T12:11:59;5.57;;;3.50;;
9888;SDS011;4983;42.112;24.738;2022-10-20T12:14:29;12.03;;;5.10;;
9888;SDS011;4983;42.112;24.738;2022-10-20T12:19:53;5.90;;;3.30;;
9888;SDS011;4983;42.112;24.738;2022-10-20T12:22:40;14.17;;;4.90;;
9888;SDS011;4983;42.112;24.738;2022-10-20T12:25:17;13.53;;;4.87;;
9888;SDS011;4983;42.112;24.738;2022-10-20T12:27:44;4.93;;;3.70;;
9888;SDS011;4983;42.112;24.738;2022-10-20T12:32:57;9.00;;;4.57;;
9888;SDS011;4983;42.112;24.738;2022-10-20T12:38:20;8.03;;;3.60;;
9888;SDS011;4983;42.112;24.738;2022-10-20T12:40:48;4.50;;;3.60;;
9888;SDS011;4983;42.112;24.738;2022-10-20T12:43:29;4.20;;;3.47;;
9888;SDS011;4983;42.112;24.738;2022-10-20T12:45:57;5.13;;;4.00;;
9888;SDS011;4983;42.112;24.738;2022-10-20T12:48:24;18.20;;;4.63;;
9888;SDS011;4983;42.112;24.738;2022-10-20T12:50:51;10.20;;;4.37;;
9888;SDS011;4983;42.112;24.738;2022-10-20T12:53:20;9.77;;;4.03;;
9888;SDS011;4983;42.112;24.738;2022-10-20T12:55:52;5.83;;;4.03;;
9888;SDS011;4983;42.112;24.738;2022-10-20T12:58:26;12.90;;;4.20;;
9888;SDS011;4983;42.112;24.738;2022-10-20T13:01:00;7.77;;;4.00;;
9888;SDS011;4983;42.112;24.738;2022-10-20T13:03:35;6.57;;;4.37;;
9888;SDS011;4983;42.112;24.738;2022-10-20T13:06:02;19.90;;;6.20;;
9888;SDS011;4983;42.112;24.738;2022-10-20T13:11:33;16.13;;;4.57;;
9888;SDS011;4983;42.112;24.738;2022-10-20T13:16:56;9.00;;;4.13;;
9888;SDS011;4983;42.112;24.738;2022-10-20T13:19:24;22.47;;;5.00;;
9888;SDS011;4983;42.112;24.738;2022-10-20T13:21:54;36.10;;;7.93;;
9888;SDS011;4983;42.112;24.738;2022-10-20T13:24:22;4.17;;;3.87;;
9888;SDS011;4983;42.112;24.738;2022-10-20T13:26:53;7.77;;;4.07;;
9888;SDS011;4983;42.112;24.738;2022-10-20T13:29:24;20.03;;;5.10;;
9888;SDS011;4983;42.112;24.738;2022-10-20T13:31:59;9.77;;;4.60;;
9888;SDS011;4983;42.112;24.738;2022-10-20T13:34:31;7.77;;;3.77;;
9888;SDS011;4983;42.112;24.738;2022-10-20T13:37:04;5.00;;;3.50;;
9888;SDS011;4983;42.112;24.738;2022-10-20T13:39:37;9.03;;;3.60;;
9888;SDS011;4983;42.112;24.738;2022-10-20T13:42:11;8.40;;;4.20;;
9888;SDS011;4983;42.112;24.738;2022-10-20T13:44:42;14.50;;;4.60;;
9888;SDS011;4983;42.112;24.738;2022-10-20T13:47:14;6.30;;;3.70;;
9888;SDS011;4983;42.112;24.738;2022-10-20T13:49:50;6.67;;;3.43;;
9888;SDS011;4983;42.112;24.738;2022-10-20T13:52:19;11.53;;;4.13;;
9888;SDS011;4983;42.112;24.738;2022-10-20T13:54:47;4.83;;;3.87;;
9888;SDS011;4983;42.112;24.738;2022-10-20T13:57:23;5.97;;;3.77;;
9888;SDS011;4983;42.112;24.738;2022-10-20T13:59:56;8.23;;;4.03;;
9888;SDS011;4983;42.112;24.738;2022-10-20T14:02:23;22.30;;;4.77;;
9888;SDS011;4983;42.112;24.738;2022-10-20T14:05:00;15.63;;;4.47;;
9888;SDS011;4983;42.112;24.738;2022-10-20T14:07:33;5.17;;;3.60;;
9888;SDS011;4983;42.112;24.738;2022-10-20T14:10:00;7.87;;;6.00;;
9888;SDS011;4983;42.112;24.738;2022-10-20T14:12:28;5.17;;;4.03;;
9888;SDS011;4983;42.112;24.738;2022-10-20T14:14:56;13.37;;;4.10;;
9888;SDS011;4983;42.112;24.738;2022-10-20T14:17:23;38.97;;;6.97;;
9888;SDS011;4983;42.112;24.738;2022-10-20T14:19:50;22.43;;;5.77;;
9888;SDS011;4983;42.112;24.738;2022-10-20T14:22:18;8.00;;;4.63;;
9888;SDS011;4983;42.112;24.738;2022-10-20T14:24:47;7.13;;;3.80;;
9888;SDS011;4983;42.112;24.738;2022-10-20T14:27:16;9.93;;;3.93;;
9888;SDS011;4983;42.112;24.738;2022-10-20T14:29:45;13.87;;;4.27;;
9888;SDS011;4983;42.112;24.738;2022-10-20T14:32:12;9.97;;;4.17;;
9888;SDS011;4983;42.112;24.738;2022-10-20T14:34:52;11.50;;;4.30;;
9888;SDS011;4983;42.112;24.738;2022-10-20T14:37:22;38.40;;;10.30;;
9888;SDS011;4983;42.112;24.738;2022-10-20T14:39:49;17.37;;;5.90;;
9888;SDS011;4983;42.112;24.738;2022-10-20T14:42:18;54.10;;;14.93;;
9888;SDS011;4983;42.112;24.738;2022-10-20T14:44:47;11.10;;;6.30;;
9888;SDS011;4983;42.112;24.738;2022-10-20T14:47:14;21.50;;;6.00;;
9888;SDS011;4983;42.112;24.738;2022-10-20T14:49:41;22.50;;;5.47;;
9888;SDS011;4983;42.112;24.738;2022-10-20T14:52:18;33.03;;;8.80;;
9888;SDS011;4983;42.112;24.738;2022-10-20T14:54:45;15.73;;;7.43;;
9888;SDS011;4983;42.112;24.738;2022-10-20T14:57:29;26.77;;;8.70;;
9888;SDS011;4983;42.112;24.738;2022-10-20T14:59:57;41.03;;;13.90;;
9888;SDS011;4983;42.112;24.738;2022-10-20T15:02:28;28.57;;;11.47;;
9888;SDS011;4983;42.112;24.738;2022-10-20T15:04:55;151.30;;;17.23;;
9888;SDS011;4983;42.112;24.738;2022-10-20T15:07:22;28.13;;;7.17;;
9888;SDS011;4983;42.112;24.738;2022-10-20T15:09:50;96.73;;;16.47;;
9888;SDS011;4983;42.112;24.738;2022-10-20T15:12:17;25.10;;;7.73;;
9888;SDS011;4983;42.112;24.738;2022-10-20T15:14:46;12.23;;;6.00;;
9888;SDS011;4983;42.112;24.738;2022-10-20T15:17:33;17.33;;;6.47;;
9888;SDS011;4983;42.112;24.738;2022-10-20T15:22:46;12.47;;;6.87;;
9888;SDS011;4983;42.112;24.738;2022-10-20T15:25:13;12.40;;;5.07;;
9888;SDS011;4983;42.112;24.738;2022-10-20T15:27:39;16.27;;;5.60;;